Latest Weather Observations for Bradshaw

IDD60801

Issued at 3:31 pm CST Thursday 5 March 2015 (issued every 30 minutes, with the page automatically refreshed every 10 minutes)

About weather observations | Map of weather stations | Latest weather observations for NT | Other Formats
Station Details ID: 014954 Name: BRADSHAW Lat: -14.94 Lon: 130.81 Height: 75.0 m
Data from the previous 72 hours. | See also: Recent months at Bradshaw
Date/Time
CST
Temp
°C
App
Temp
°C
Dew
Point
Rel
Hum
%
Delta-T
°C
Wind Press
QNH
hPa
Press
MSL
hPa
Rain
since 9 am
mm
Dir
 
Spd
km/h
Gust
km/h
Spd
kts
Gust
kts
05/03:30pm 37.5 42.1 25.3 49 8.8 SE 11 20 6 11 1006.2 - 0.0
05/03:00pm 37.8 43.7 26.2 51 8.4 E 7 19 4 10 1006.9 1006.3 0.0
05/02:30pm 36.5 41.5 25.4 53 8.0 S 9 15 5 8 1007.5 - 0.0
05/02:00pm 36.3 39.3 25.2 53 7.9 S 19 22 10 12 1008.0 - 0.0
05/01:30pm 36.9 42.2 26.4 55 7.6 SE 11 20 6 11 1008.4 - 0.0
05/01:00pm 36.2 41.6 26.6 57 7.0 SSE 11 17 6 9 1008.8 - 0.0
05/12:30pm 35.3 40.9 26.3 59 6.5 S 9 17 5 9 1009.2 - 0.0
05/12:00pm 34.9 40.8 26.8 63 5.9 S 9 15 5 8 1009.2 1008.6 0.0
05/11:30am 34.4 40.7 27.4 67 5.1 S 9 13 5 7 1009.6 - 0.0
05/11:00am 33.5 39.9 27.0 69 4.7 SW 7 13 4 7 1010.0 - 0.0
05/10:30am 32.4 39.2 26.7 72 4.1 W 4 13 2 7 1010.4 - 0.0
05/10:00am 31.4 37.4 26.4 75 3.6 S 7 13 4 7 1011.0 - 0.0
05/09:30am 30.4 36.2 26.1 78 3.1 W 7 11 4 6 1011.0 - 0.0
05/09:00am 29.3 34.9 25.5 80 2.7 SW 6 11 3 6 1011.2 1010.6 0.0
05/08:30am 28.5 34.6 25.1 82 2.4 NNW 2 6 1 3 1010.9 - 0.0
05/08:00am 27.6 33.7 24.4 83 2.2 CALM 0 0 0 0 1010.7 - 0.0
05/07:30am 26.7 32.4 23.8 84 2.0 CALM 0 0 0 0 1010.3 - 0.0
05/07:00am 25.7 30.8 22.6 83 2.1 CALM 0 0 0 0 1009.9 - 0.0
05/06:30am 25.7 30.0 22.6 83 2.1 ENE 4 7 2 4 1009.8 - 0.0
05/06:00am 26.0 30.0 22.7 82 2.2 NE 6 9 3 5 1009.3 1008.7 0.0
05/05:30am 26.0 31.0 22.5 81 2.4 CALM 0 0 0 0 1009.1 - 0.0
05/05:00am 25.9 30.7 22.2 80 2.5 CALM 0 0 0 0 1009.0 - 0.0
05/04:30am 26.3 30.1 22.4 79 2.6 SW 6 7 3 4 1008.6 - 0.0
05/04:00am 27.3 30.2 23.1 78 2.9 N 13 20 7 11 1008.9 - 0.0
05/03:30am 26.9 30.4 22.9 79 2.7 NNE 9 13 5 7 1008.7 - 0.0
05/03:00am 27.3 31.1 23.5 80 2.6 N 9 15 5 8 1009.0 1008.4 0.0
05/02:30am 27.0 30.6 23.7 82 2.3 NNW 11 17 6 9 1009.3 - 0.0
05/02:00am 26.4 30.6 23.1 82 2.2 E 6 9 3 5 1008.7 - 0.0
05/01:30am 26.5 28.9 23.0 81 2.4 NNW 15 26 8 14 1008.9 - 0.0
05/01:00am 26.7 31.5 22.8 79 2.6 NNW 2 9 1 5 1009.1 - 0.0
05/12:30am 27.0 32.2 22.8 78 2.9 CALM 0 6 0 3 1009.7 - 0.0
05/12:00am 27.0 30.3 22.6 77 3.0 N 9 11 5 6 1010.3 1009.7 0.0
 
Date/Time
CST
Temp
°C
App
Temp
°C
Dew
Point
Rel
Hum
%
Delta-T
°C
Wind Press
QNH
hPa
Press
MSL
hPa
Rain
since 9 am
mm
Dir
 
Spd
km/h
Gust
km/h
Spd
kts
Gust
kts
04/11:30pm 28.5 31.7 24.3 78 2.9 ENE 15 24 8 13 1010.7 - 0.0
04/11:00pm 28.0 33.7 23.8 78 2.9 CALM 0 0 0 0 1010.1 - 0.0
04/10:30pm 28.3 34.0 23.7 76 3.2 CALM 0 0 0 0 1009.8 - 0.0
04/10:00pm 28.3 33.7 23.2 74 3.5 CALM 0 0 0 0 1009.9 - 0.0
04/09:30pm 28.8 34.4 23.5 73 3.7 CALM 0 0 0 0 1009.7 - 0.0
04/09:00pm 29.2 34.7 23.4 71 4.0 CALM 0 0 0 0 1009.5 1008.9 0.0
04/08:30pm 29.2 34.4 22.9 69 4.3 CALM 0 0 0 0 1009.0 - 0.0
04/08:00pm 29.2 33.9 21.9 64 4.9 CALM 0 0 0 0 1008.6 - 0.0
04/07:30pm 29.5 33.4 21.2 61 5.6 N 2 9 1 5 1007.8 - 0.0
04/07:00pm 31.1 34.7 21.3 56 6.6 SSE 4 9 2 5 1007.4 - 0.0
04/06:30pm 33.1 36.6 22.2 52 7.5 ENE 7 11 4 6 1007.0 - 0.0
04/06:00pm 34.3 37.5 22.4 50 8.2 NNE 9 15 5 8 1006.6 1006.1 0.0
04/05:30pm 35.7 40.4 24.0 51 8.2 N 6 13 3 7 1006.5 - 0.0
04/05:00pm 36.2 40.6 24.4 50 8.4 NNE 9 15 5 8 1006.5 - 0.0
04/04:30pm 36.2 40.8 24.8 52 8.1 ENE 9 13 5 7 1006.5 - 0.0
04/04:00pm 36.6 40.3 25.1 51 8.2 NE 15 24 8 13 1006.9 - 0.0
04/03:30pm 35.2 39.5 24.2 53 7.8 ENE 9 17 5 9 1007.0 - 0.0
04/03:00pm 35.1 39.5 24.4 54 7.6 N 9 19 5 10 1007.3 1006.7 0.0
04/02:30pm 35.5 39.4 25.4 56 7.2 NNE 15 26 8 14 1007.7 - 0.0
04/02:00pm 35.5 39.9 25.7 57 7.0 NE 13 20 7 11 1007.9 - 0.0
04/01:30pm 34.8 39.0 25.9 60 6.4 NE 15 22 8 12 1008.4 - 0.0
04/01:00pm 34.4 39.1 26.1 62 6.0 NNE 13 20 7 11 1008.9 - 0.0
04/12:30pm 34.3 39.3 26.5 64 5.6 N 13 20 7 11 1009.4 - 0.0
04/12:00pm 33.2 37.4 26.0 66 5.2 ENE 15 20 8 11 1009.9 1009.3 0.0
04/11:30am 32.8 36.4 26.1 68 4.8 NE 19 26 10 14 1010.2 - 0.0
04/11:00am 32.0 37.1 26.1 71 4.2 N 11 19 6 10 1010.2 - 0.0
04/10:30am 31.3 36.2 25.9 73 3.9 N 11 17 6 9 1010.2 - 0.0
04/10:00am 31.3 37.1 26.6 76 3.4 NNW 9 15 5 8 1010.2 - 0.0
04/09:30am 30.2 34.9 26.1 79 2.9 NNE 13 17 7 9 1010.3 - 0.0
04/09:00am 28.3 32.1 24.7 81 2.5 NNE 13 19 7 10 1010.3 1009.7 0.2
04/08:30am 28.5 33.1 25.3 83 2.3 NNE 11 19 6 10 1010.1 - 0.2
04/08:00am 27.1 31.1 24.4 85 1.9 NNE 11 17 6 9 1009.5 - 0.2
04/07:30am 26.1 30.4 23.6 86 1.7 NNE 7 11 4 6 1009.2 - 0.2
04/07:00am 25.6 29.7 22.9 85 1.8 ENE 6 9 3 5 1009.0 - 0.2
04/06:30am 25.4 29.2 22.7 85 1.8 NE 7 9 4 5 1008.7 - 0.2
04/06:00am 25.5 29.9 22.8 85 1.8 NNE 4 7 2 4 1008.3 1007.7 0.2
04/05:30am 25.5 30.6 22.6 84 2.0 CALM 0 4 0 2 1008.1 - 0.2
04/05:00am 25.8 29.7 22.9 84 2.0 E 7 9 4 5 1007.8 - 0.2
04/04:30am 25.9 29.7 22.8 83 2.1 NE 7 11 4 6 1007.3 - 0.2
04/04:00am 25.9 30.2 22.6 82 2.2 E 4 7 2 4 1007.3 - 0.2
04/03:30am 26.1 30.0 22.6 81 2.4 ESE 6 9 3 5 1007.0 - 0.2
04/03:00am 26.3 30.1 22.8 81 2.4 NE 7 11 4 6 1006.9 1006.3 0.2
04/02:30am 26.3 30.2 22.6 80 2.5 NE 6 9 3 5 1007.3 - 0.2
04/02:00am 26.7 30.7 22.8 79 2.6 ENE 6 7 3 4 1007.6 - 0.2
04/01:30am 26.9 32.0 22.7 78 2.9 CALM 0 0 0 0 1007.7 - 0.2
04/01:00am 27.6 31.7 23.2 77 3.0 N 7 9 4 5 1008.0 - 0.2
04/12:30am 27.9 31.0 23.5 77 3.0 N 13 19 7 10 1008.4 - 0.2
04/12:00am 28.2 31.2 23.3 75 3.4 NNE 13 20 7 11 1008.7 1008.1 0.2
 
Date/Time
CST
Temp
°C
App
Temp
°C
Dew
Point
Rel
Hum
%
Delta-T
°C
Wind Press
QNH
hPa
Press
MSL
hPa
Rain
since 9 am
mm
Dir
 
Spd
km/h
Gust
km/h
Spd
kts
Gust
kts
03/11:30pm 28.4 32.1 23.3 74 3.5 NNE 9 15 5 8 1008.5 - 0.2
03/11:00pm 28.2 32.4 23.1 74 3.5 NE 6 11 3 6 1008.4 - 0.2
03/10:30pm 28.2 32.9 22.7 72 3.7 NE 2 7 1 4 1008.0 - 0.2
03/10:00pm 28.4 32.1 22.6 71 3.9 NE 7 9 4 5 1007.7 - 0.2
03/09:30pm 28.8 31.5 22.8 70 4.1 N 13 17 7 9 1007.5 - 0.2
03/09:00pm 29.3 32.0 22.8 68 4.5 N 13 20 7 11 1007.2 1006.6 0.2
03/08:30pm 29.7 32.3 22.7 66 4.8 N 13 19 7 10 1007.1 - 0.2
03/08:00pm 30.1 34.2 22.3 63 5.3 NNE 4 7 2 4 1006.6 - 0.2
03/07:30pm 30.6 33.8 21.7 59 6.0 ENE 7 9 4 5 1005.9 - 0.2
03/07:00pm 32.0 34.9 21.8 54 6.9 ENE 9 13 5 7 1005.5 - 0.2
03/06:30pm 33.6 35.3 22.4 52 7.7 E 17 22 9 12 1005.0 - 0.2
03/06:00pm 34.2 35.8 22.9 51 7.8 E 19 28 10 15 1004.9 1004.4 0.2
03/05:30pm 35.0 37.1 23.7 52 7.9 E 19 26 10 14 1004.6 - 0.2
03/05:00pm 35.1 37.4 24.1 53 7.7 NE 19 26 10 14 1004.6 - 0.2
03/04:30pm 35.5 38.4 25.1 55 7.4 E 19 28 10 15 1004.8 - 0.2
03/04:00pm 34.9 37.6 24.8 55 7.2 ENE 19 28 10 15 1005.1 - 0.2
03/03:30pm 34.6 37.3 24.8 56 6.9 ENE 19 30 10 16 1005.4 - 0.2
03/03:00pm 35.5 39.0 26.0 58 6.9 NNE 19 28 10 15 1005.4 1004.9 0.2
03/02:30pm 35.8 39.3 26.8 59 6.5 NNE 22 32 12 17 1005.7 - 0.2
03/02:00pm 34.8 38.8 26.2 61 6.2 NE 17 30 9 16 1005.9 - 0.2
03/01:30pm 35.1 38.3 27.0 63 5.9 ENE 24 33 13 18 1006.4 - 0.2
03/01:00pm 34.5 38.8 27.2 66 5.3 E 19 30 10 16 1006.6 - 0.2
03/12:30pm 34.0 38.1 27.2 67 5.0 ENE 20 33 11 18 1007.1 - 0.2
03/12:00pm 33.5 36.5 27.3 70 4.5 ENE 26 37 14 20 1007.5 1006.9 0.2
03/11:30am 33.5 38.7 28.4 74 3.8 ENE 19 32 10 17 1007.5 - 0.2
03/11:00am 32.5 37.6 28.6 80 2.9 ENE 20 28 11 15 1007.9 - 0.2
03/10:30am 31.3 36.7 28.7 86 1.9 ENE 19 26 10 14 1008.1 - 0.0
03/10:00am 29.1 35.0 27.3 90 1.3 NE 11 15 6 8 1008.1 - 0.0
03/09:30am 28.1 34.8 26.5 91 1.1 NNE 4 7 2 4 1008.5 - 0.0
03/09:00am 27.5 34.7 26.1 92 1.0 CALM 0 0 0 0 1008.3 1007.7 8.2
03/08:30am 26.5 33.1 25.3 93 0.8 CALM 0 0 0 0 1008.0 - 8.2
03/08:00am 25.8 31.9 24.4 92 1.0 CALM 0 0 0 0 1007.6 - 8.2
03/07:30am 25.4 31.2 24.0 92 1.0 CALM 0 0 0 0 1007.2 - 8.2
03/07:00am 24.8 30.3 23.4 92 1.0 CALM 0 0 0 0 1006.7 - 8.2
03/06:30am 24.7 30.1 23.3 92 1.0 CALM 0 0 0 0 1006.2 - 8.2
03/06:00am 24.8 29.8 23.2 91 1.1 WNW 2 7 1 4 1005.8 1005.3 8.2
03/05:30am 25.1 29.5 23.5 91 1.1 NE 6 7 3 4 1005.5 - 8.2
03/05:00am 25.2 30.4 23.6 91 1.1 ENE 2 7 1 4 1005.2 - 8.2
03/04:30am 25.3 31.0 23.7 91 1.1 CALM 0 0 0 0 1005.2 - 8.2
03/04:00am 25.3 31.0 23.7 91 1.1 CALM 0 0 0 0 1005.2 - 8.2
03/03:30am 25.4 31.1 23.8 91 1.1 CALM 0 0 0 0 1005.4 - 8.2
03/03:00am 25.4 30.6 23.6 90 1.2 NE 2 6 1 3 1005.6 1005.1 8.2
03/02:30am 25.4 31.0 23.6 90 1.2 CALM 0 0 0 0 1005.9 - 8.2
03/02:00am 25.3 30.9 23.5 90 1.2 CALM 0 0 0 0 1005.9 - 8.2
03/01:30am 25.3 30.8 23.4 89 1.3 CALM 0 0 0 0 1005.8 - 8.2
03/01:00am 25.3 30.8 23.4 89 1.3 CALM 0 0 0 0 1006.2 - 8.2
03/12:30am 25.5 30.7 23.6 89 1.3 NE 2 6 1 3 1007.0 - 8.2
03/12:00am 25.5 29.7 23.4 88 1.4 ESE 7 11 4 6 1007.3 1006.7 8.2
 
Date/Time
CST
Temp
°C
App
Temp
°C
Dew
Point
Rel
Hum
%
Delta-T
°C
Wind Press
QNH
hPa
Press
MSL
hPa
Rain
since 9 am
mm
Dir
 
Spd
km/h
Gust
km/h
Spd
kts
Gust
kts
02/11:30pm 25.5 31.0 23.4 88 1.4 CALM 0 0 0 0 - - 8.2
02/11:00pm 25.3 29.4 23.0 87 1.6 NW 6 9 3 5 1007.3 - 8.2
02/10:30pm 25.4 29.5 22.9 86 1.7 WSW 6 9 3 5 1007.6 - 7.4
02/10:00pm 25.6 26.5 22.7 84 2.0 NNE 22 35 12 19 1008.1 - 4.2
02/09:30pm 27.0 32.5 24.1 84 2.0 WNW 2 7 1 4 1006.5 - 2.0
02/09:00pm 27.0 32.0 23.9 83 2.1 NW 4 6 2 3 1005.2 1004.7 2.0
02/08:30pm 27.0 31.9 23.7 82 2.3 NW 4 7 2 4 1005.3 - 2.0
02/08:00pm 27.1 32.5 23.3 80 2.6 CALM 0 0 0 0 1004.7 - 2.0
02/07:30pm 27.2 32.2 23.2 79 2.7 WNW 2 6 1 3 1004.5 - 2.0
02/07:00pm 27.6 32.5 23.0 76 3.1 NW 2 7 1 4 1004.2 - 2.0
02/06:30pm 28.0 32.0 23.1 74 3.4 S 7 9 4 5 1003.9 - 1.8
02/06:00pm 28.8 33.0 23.5 73 3.7 SW 7 11 4 6 1003.7 1003.2 1.8
02/05:30pm 29.1 32.6 24.2 75 3.4 SSW 13 20 7 11 1003.6 - 1.8
02/05:00pm 29.2 33.9 24.3 75 3.4 S 7 13 4 7 1003.5 - 1.8
02/04:30pm 29.0 33.7 24.3 76 3.3 SW 7 13 4 7 1003.5 - 1.8
02/04:00pm 28.2 31.8 23.8 77 3.0 SSW 11 17 6 9 1003.8 - 1.8

Other Formats:

Comma delimited format used in spreadsheet applications
http://www.bom.gov.au/fwo/IDD60801/IDD60801.94130.axf

JavaScript Object Notation format (JSON) in row-major order
http://www.bom.gov.au/fwo/IDD60801/IDD60801.94130.json